Time;durP1;ratioP1;P1;durP2;ratioP2;P2;SDS_P1;SDS_P2;PMS_P1;PMS_P2;Temp;Humidity;BMP_temperature;BMP_pressure;BME280_temperature;BME280_humidity;BME280_pressure;Samples;Min_cycle;Max_cycle;Signal;HPM_P1;HPM_P2
2023/07/10 00:00:26;;;;;;;7.55;4.63;;;;;;;;;;5101381;28;20030;-62
2023/07/10 00:02:51;;;;;;;7.53;4.55;;;;;;;;;;5102189;27;20024;-62
2023/07/10 00:05:18;;;;;;;8.63;4.53;;;;;;;;;;5101815;28;20689;-63
2023/07/10 00:07:44;;;;;;;7.97;4.65;;;;;;;;;;5100532;28;20024;-63
2023/07/10 00:10:16;;;;;;;8.38;4.93;;;;;;;;;;5095020;28;20172;-63
2023/07/10 00:12:42;;;;;;;9.27;4.60;;;;;;;;;;5099415;28;20039;-63
2023/07/10 00:15:18;;;;;;;8.13;5.03;;;;;;;;;;5097398;28;20027;-64
2023/07/10 00:17:45;;;;;;;11.43;4.85;;;;;;;;;;5098687;28;20702;-63
2023/07/10 00:20:14;;;;;;;8.10;4.70;;;;;;;;;;5098202;28;20047;-63
2023/07/10 00:22:40;;;;;;;7.35;4.85;;;;;;;;;;5093343;28;20738;-63
2023/07/10 00:25:05;;;;;;;6.88;4.65;;;;;;;;;;5097152;28;20024;-63
2023/07/10 00:27:30;;;;;;;10.27;4.85;;;;;;;;;;5097063;28;20012;-63
2023/07/10 00:29:56;;;;;;;7.65;4.68;;;;;;;;;;5102167;28;20063;-64
2023/07/10 00:32:23;;;;;;;8.40;4.72;;;;;;;;;;5096465;28;20374;-63
2023/07/10 00:34:49;;;;;;;9.50;4.95;;;;;;;;;;5096646;28;20023;-62
2023/07/10 00:37:14;;;;;;;9.23;4.63;;;;;;;;;;5099083;28;20020;-63
2023/07/10 00:39:39;;;;;;;8.82;4.55;;;;;;;;;;5100080;28;20088;-63
2023/07/10 00:42:11;;;;;;;7.88;4.78;;;;;;;;;;5100122;28;20407;-62
2023/07/10 00:44:41;;;;;;;8.10;4.68;;;;;;;;;;5096815;28;20097;-62
2023/07/10 00:47:19;;;;;;;10.30;4.85;;;;;;;;;;5094439;28;20023;-63
2023/07/10 00:49:47;;;;;;;9.50;5.05;;;;;;;;;;5086136;28;20020;-63
2023/07/10 00:52:12;;;;;;;7.10;4.80;;;;;;;;;;5087536;28;20027;-63
2023/07/10 00:54:41;;;;;;;8.80;4.47;;;;;;;;;;5096814;28;20019;-64
2023/07/10 00:57:15;;;;;;;7.15;4.85;;;;;;;;;;5090658;28;20066;-63
2023/07/10 00:59:41;;;;;;;7.45;4.95;;;;;;;;;;5092000;28;20139;-64
2023/07/10 01:02:09;;;;;;;7.40;4.88;;;;;;;;;;5071850;28;20376;-62
2023/07/10 01:04:35;;;;;;;7.03;4.88;;;;;;;;;;5094419;28;20620;-63
2023/07/10 01:07:01;;;;;;;8.13;4.63;;;;;;;;;;5091390;28;20026;-64
2023/07/10 01:09:27;;;;;;;7.35;4.65;;;;;;;;;;5087683;28;20019;-64
2023/07/10 01:11:52;;;;;;;8.23;4.78;;;;;;;;;;5091527;28;20109;-62
2023/07/10 01:14:18;;;;;;;9.10;4.57;;;;;;;;;;5083588;28;20672;-63
2023/07/10 01:16:43;;;;;;;7.95;4.40;;;;;;;;;;5090723;28;20273;-63
2023/07/10 01:19:14;;;;;;;8.37;4.70;;;;;;;;;;5083675;28;20008;-64
2023/07/10 01:21:39;;;;;;;7.70;4.22;;;;;;;;;;5085995;28;20039;-62
2023/07/10 01:24:05;;;;;;;7.35;4.35;;;;;;;;;;5091092;28;20028;-62
2023/07/10 01:26:31;;;;;;;7.97;4.60;;;;;;;;;;5090331;28;20503;-61
2023/07/10 01:28:59;;;;;;;7.55;4.72;;;;;;;;;;5088347;28;20123;-64
2023/07/10 01:31:25;;;;;;;7.70;4.82;;;;;;;;;;5084195;28;20012;-62
2023/07/10 01:33:58;;;;;;;7.18;4.43;;;;;;;;;;5086355;28;20048;-63
2023/07/10 01:36:25;;;;;;;8.40;4.47;;;;;;;;;;5090752;28;20016;-62
2023/07/10 01:39:18;;;;;;;9.38;4.90;;;;;;;;;;5091167;28;20022;-64
2023/07/10 01:41:44;;;;;;;8.85;4.10;;;;;;;;;;5071537;28;20023;-63
2023/07/10 01:44:12;;;;;;;9.43;4.70;;;;;;;;;;5091674;28;20030;-63
2023/07/10 01:46:37;;;;;;;6.85;4.35;;;;;;;;;;5092281;28;20023;-63
2023/07/10 01:49:03;;;;;;;8.10;4.30;;;;;;;;;;5086532;28;20019;-62
2023/07/10 01:51:29;;;;;;;9.63;4.60;;;;;;;;;;5088839;28;20348;-63
2023/07/10 01:53:59;;;;;;;6.93;4.25;;;;;;;;;;5092146;28;20028;-63
2023/07/10 01:56:24;;;;;;;6.82;4.30;;;;;;;;;;5090574;28;20579;-62
2023/07/10 01:58:50;;;;;;;7.43;3.97;;;;;;;;;;5093408;28;20052;-62
2023/07/10 02:01:17;;;;;;;8.55;4.30;;;;;;;;;;5088986;28;20076;-63
2023/07/10 02:03:43;;;;;;;7.85;4.55;;;;;;;;;;5089111;28;20100;-62
2023/07/10 02:06:08;;;;;;;7.45;4.40;;;;;;;;;;5095062;28;20092;-62
2023/07/10 02:08:34;;;;;;;9.15;4.57;;;;;;;;;;5087245;28;20099;-62
2023/07/10 02:10:59;;;;;;;8.03;4.40;;;;;;;;;;5093223;28;20019;-63
2023/07/10 02:13:24;;;;;;;8.45;4.70;;;;;;;;;;5088692;28;20262;-62
2023/07/10 02:15:50;;;;;;;8.57;4.43;;;;;;;;;;5093433;28;21250;-62
2023/07/10 02:18:15;;;;;;;8.23;4.30;;;;;;;;;;5088432;28;20281;-62
2023/07/10 02:20:42;;;;;;;10.60;4.55;;;;;;;;;;5094623;28;20003;-62
2023/07/10 02:23:07;;;;;;;12.25;4.05;;;;;;;;;;5087398;28;20846;-62
2023/07/10 02:25:32;;;;;;;8.98;4.00;;;;;;;;;;5091310;28;20015;-62
2023/07/10 02:27:59;;;;;;;10.20;4.40;;;;;;;;;;5087814;28;20091;-61
2023/07/10 02:30:24;;;;;;;7.85;4.03;;;;;;;;;;5086547;28;20249;-63
2023/07/10 02:32:49;;;;;;;7.20;4.28;;;;;;;;;;5089716;28;20408;-62
2023/07/10 02:35:14;;;;;;;7.80;4.30;;;;;;;;;;5082301;28;20504;-62
2023/07/10 02:37:42;;;;;;;7.50;4.60;;;;;;;;;;5088713;28;20315;-62
2023/07/10 02:40:08;;;;;;;9.05;4.25;;;;;;;;;;5085988;28;20445;-62
2023/07/10 02:42:34;;;;;;;9.77;4.22;;;;;;;;;;5093560;28;20099;-62
2023/07/10 02:45:01;;;;;;;7.63;4.20;;;;;;;;;;5090712;28;20035;-62
2023/07/10 02:47:27;;;;;;;8.50;4.45;;;;;;;;;;5091592;28;20023;-63
2023/07/10 02:49:52;;;;;;;6.20;3.97;;;;;;;;;;5090545;28;20016;-62
2023/07/10 02:52:20;;;;;;;7.53;4.00;;;;;;;;;;5086155;28;20392;-63
2023/07/10 02:54:47;;;;;;;7.63;4.35;;;;;;;;;;5094851;28;20019;-63
2023/07/10 02:57:15;;;;;;;7.50;4.38;;;;;;;;;;5085388;28;20020;-64
2023/07/10 02:59:40;;;;;;;10.88;4.68;;;;;;;;;;5086645;28;20080;-64
2023/07/10 03:02:05;;;;;;;7.20;4.30;;;;;;;;;;5083784;28;20020;-64
2023/07/10 03:04:31;;;;;;;7.65;4.18;;;;;;;;;;5082030;28;20254;-63
2023/07/10 03:06:58;;;;;;;8.63;4.43;;;;;;;;;;5081853;28;20031;-62
2023/07/10 03:09:23;;;;;;;8.07;4.40;;;;;;;;;;5084489;28;20015;-61
2023/07/10 03:11:49;;;;;;;8.47;4.10;;;;;;;;;;5089266;28;20027;-63
2023/07/10 03:14:14;;;;;;;7.65;4.20;;;;;;;;;;5092049;28;20311;-63
2023/07/10 03:16:39;;;;;;;8.57;4.23;;;;;;;;;;5090795;28;20060;-62
2023/07/10 03:19:05;;;;;;;7.28;4.30;;;;;;;;;;5085187;28;20955;-62
2023/07/10 03:21:30;;;;;;;7.05;3.97;;;;;;;;;;5088653;28;20019;-62
2023/07/10 03:23:57;;;;;;;7.22;4.32;;;;;;;;;;5084825;28;20367;-63
2023/07/10 03:26:22;;;;;;;10.90;4.28;;;;;;;;;;5089525;28;20051;-62
2023/07/10 03:29:00;;;;;;;7.88;4.40;;;;;;;;;;5091994;28;20120;-62
2023/07/10 03:31:28;;;;;;;7.43;4.32;;;;;;;;;;5090899;28;20018;-63
2023/07/10 03:33:53;;;;;;;9.45;4.55;;;;;;;;;;5107362;27;20496;-62
2023/07/10 03:36:18;;;;;;;7.75;3.88;;;;;;;;;;5090107;28;20013;-63
2023/07/10 03:38:46;;;;;;;6.87;4.27;;;;;;;;;;5095672;28;20095;-65
2023/07/10 03:41:11;;;;;;;8.15;4.22;;;;;;;;;;5089705;28;20714;-62
2023/07/10 03:43:37;;;;;;;8.30;4.05;;;;;;;;;;5098501;28;20482;-63
2023/07/10 03:46:04;;;;;;;7.30;4.65;;;;;;;;;;5089949;28;20107;-61
2023/07/10 03:48:29;;;;;;;12.05;4.78;;;;;;;;;;5097502;27;20034;-62
2023/07/10 03:51:00;;;;;;;7.50;4.40;;;;;;;;;;5092176;28;20020;-62
2023/07/10 03:53:27;;;;;;;8.05;4.63;;;;;;;;;;5092686;28;20031;-64
2023/07/10 03:55:53;;;;;;;8.27;4.40;;;;;;;;;;5090238;28;20471;-63
2023/07/10 03:58:22;;;;;;;7.78;4.20;;;;;;;;;;5089418;28;20658;-63
2023/07/10 04:00:49;;;;;;;7.70;4.43;;;;;;;;;;5092374;28;20409;-64
2023/07/10 04:03:14;;;;;;;7.20;4.13;;;;;;;;;;5089204;28;20051;-64
2023/07/10 04:05:40;;;;;;;8.30;4.40;;;;;;;;;;5094299;28;20460;-64
2023/07/10 04:08:06;;;;;;;7.22;3.60;;;;;;;;;;5090628;28;20114;-60
2023/07/10 04:10:31;;;;;;;8.35;4.50;;;;;;;;;;5092902;28;20023;-64
2023/07/10 04:12:56;;;;;;;7.78;4.22;;;;;;;;;;5092147;28;20042;-64
2023/07/10 04:15:24;;;;;;;8.17;4.00;;;;;;;;;;5090798;28;20016;-64
2023/07/10 04:17:51;;;;;;;7.15;4.53;;;;;;;;;;5087001;28;20277;-63
2023/07/10 04:20:19;;;;;;;9.13;4.60;;;;;;;;;;5098148;28;20031;-62
2023/07/10 04:22:51;;;;;;;7.75;4.13;;;;;;;;;;5090000;28;20534;-63
2023/07/10 04:25:17;;;;;;;7.72;4.03;;;;;;;;;;5094415;28;20119;-62
2023/07/10 04:27:42;;;;;;;7.50;4.13;;;;;;;;;;5092356;28;20020;-62
2023/07/10 04:30:11;;;;;;;8.23;4.50;;;;;;;;;;5089296;28;20414;-61
2023/07/10 04:32:36;;;;;;;7.82;4.20;;;;;;;;;;5091258;28;20409;-61
2023/07/10 04:35:01;;;;;;;7.17;4.40;;;;;;;;;;5089753;28;20022;-61
2023/07/10 04:37:27;;;;;;;7.03;4.00;;;;;;;;;;5095784;28;20292;-62
2023/07/10 04:39:52;;;;;;;9.93;4.30;;;;;;;;;;5088971;28;20012;-62
2023/07/10 04:42:17;;;;;;;8.53;4.37;;;;;;;;;;5081420;28;20912;-62
2023/07/10 04:44:42;;;;;;;8.75;4.38;;;;;;;;;;5090802;28;20309;-62
2023/07/10 04:47:08;;;;;;;6.83;4.10;;;;;;;;;;5091855;28;20108;-63
2023/07/10 04:49:33;;;;;;;9.38;4.72;;;;;;;;;;5089996;28;20031;-62
2023/07/10 04:51:58;;;;;;;9.93;4.50;;;;;;;;;;5093096;28;20020;-63
2023/07/10 04:54:23;;;;;;;7.72;4.25;;;;;;;;;;5091475;28;20086;-63
2023/07/10 04:56:52;;;;;;;7.93;3.97;;;;;;;;;;5089232;27;20020;-63
2023/07/10 04:59:20;;;;;;;9.57;4.28;;;;;;;;;;5098165;28;20248;-62
2023/07/10 05:01:45;;;;;;;9.25;4.50;;;;;;;;;;5088592;28;20050;-63
2023/07/10 05:04:10;;;;;;;9.77;4.53;;;;;;;;;;5096403;28;20118;-63
2023/07/10 05:06:38;;;;;;;7.70;4.23;;;;;;;;;;5085277;28;20032;-62
2023/07/10 05:09:04;;;;;;;9.23;4.55;;;;;;;;;;5086731;28;20285;-62
2023/07/10 05:11:30;;;;;;;8.73;4.38;;;;;;;;;;5093430;28;20019;-61
2023/07/10 05:13:56;;;;;;;8.40;4.80;;;;;;;;;;5091351;28;20034;-62
2023/07/10 05:16:23;;;;;;;7.43;4.43;;;;;;;;;;5088814;28;20023;-64
2023/07/10 05:18:49;;;;;;;9.40;4.57;;;;;;;;;;5089019;28;20131;-61
2023/07/10 05:21:14;;;;;;;7.57;4.85;;;;;;;;;;5086918;28;20020;-63
2023/07/10 05:23:39;;;;;;;9.23;4.33;;;;;;;;;;5086660;28;20123;-61
2023/07/10 05:26:07;;;;;;;7.93;4.33;;;;;;;;;;5092196;28;20253;-62
2023/07/10 05:28:34;;;;;;;9.50;4.70;;;;;;;;;;5089333;28;20253;-64
2023/07/10 05:30:59;;;;;;;8.48;4.80;;;;;;;;;;5087074;28;20028;-64
2023/07/10 05:33:25;;;;;;;10.98;4.30;;;;;;;;;;5093624;28;20015;-62
2023/07/10 05:35:52;;;;;;;9.82;4.40;;;;;;;;;;5081855;28;20443;-63
2023/07/10 05:38:17;;;;;;;11.25;5.05;;;;;;;;;;5092492;28;20119;-62
2023/07/10 05:40:43;;;;;;;8.18;4.80;;;;;;;;;;5087431;28;20043;-63
2023/07/10 05:43:08;;;;;;;8.43;4.53;;;;;;;;;;5088808;28;20073;-64
2023/07/10 05:45:33;;;;;;;6.93;4.70;;;;;;;;;;5085405;28;20345;-63
2023/07/10 05:48:03;;;;;;;7.20;4.50;;;;;;;;;;5085606;28;20245;-63
2023/07/10 05:50:28;;;;;;;8.60;4.45;;;;;;;;;;5088575;28;20030;-64
2023/07/10 05:52:54;;;;;;;7.83;4.30;;;;;;;;;;5089394;28;20027;-63
2023/07/10 05:55:21;;;;;;;9.45;4.55;;;;;;;;;;5086507;28;20258;-63
2023/07/10 05:57:46;;;;;;;9.02;4.65;;;;;;;;;;5085057;28;20726;-64
2023/07/10 06:00:11;;;;;;;8.40;4.77;;;;;;;;;;5090757;28;20192;-60
2023/07/10 06:02:37;;;;;;;7.78;4.75;;;;;;;;;;5086998;28;20809;-66
2023/07/10 06:05:02;;;;;;;7.80;4.50;;;;;;;;;;5086281;28;20034;-64
2023/07/10 06:07:30;;;;;;;7.38;4.47;;;;;;;;;;5090936;28;20303;-62
2023/07/10 06:09:57;;;;;;;7.18;4.22;;;;;;;;;;5091041;28;20041;-63
2023/07/10 06:12:26;;;;;;;7.90;4.97;;;;;;;;;;5088219;28;20020;-63
2023/07/10 06:14:52;;;;;;;6.53;4.43;;;;;;;;;;5084793;28;20047;-63
2023/07/10 06:17:19;;;;;;;7.50;4.50;;;;;;;;;;5092973;28;20135;-62
2023/07/10 06:19:44;;;;;;;8.00;4.30;;;;;;;;;;5088847;28;20250;-63
2023/07/10 06:22:11;;;;;;;8.30;4.67;;;;;;;;;;5083928;28;20267;-61
2023/07/10 06:24:38;;;;;;;9.63;5.03;;;;;;;;;;5090623;28;20114;-63
2023/07/10 06:27:03;;;;;;;6.43;4.03;;;;;;;;;;5084308;28;20785;-64
2023/07/10 06:29:31;;;;;;;6.95;4.32;;;;;;;;;;5089691;28;20045;-63
2023/07/10 06:31:57;;;;;;;8.35;4.72;;;;;;;;;;5093152;28;20474;-64
2023/07/10 06:34:22;;;;;;;9.17;4.50;;;;;;;;;;5083922;28;20027;-64
2023/07/10 06:36:47;;;;;;;7.90;4.83;;;;;;;;;;5090045;28;20257;-61
2023/07/10 06:39:15;;;;;;;9.87;4.00;;;;;;;;;;5083381;28;20280;-62
2023/07/10 06:41:40;;;;;;;7.70;4.55;;;;;;;;;;5083658;28;20024;-62
2023/07/10 06:44:06;;;;;;;7.00;4.15;;;;;;;;;;5090406;28;20024;-63
2023/07/10 06:46:33;;;;;;;8.55;4.90;;;;;;;;;;5085450;28;20020;-63
2023/07/10 06:49:03;;;;;;;8.02;4.70;;;;;;;;;;5091173;28;20042;-61
2023/07/10 06:51:29;;;;;;;9.00;4.30;;;;;;;;;;5085117;28;20101;-62
2023/07/10 06:53:54;;;;;;;8.60;4.40;;;;;;;;;;5094223;28;20518;-63
2023/07/10 06:56:20;;;;;;;6.87;4.47;;;;;;;;;;5088572;28;20027;-64
2023/07/10 06:58:47;;;;;;;7.50;4.13;;;;;;;;;;5091188;28;20241;-63
2023/07/10 07:01:12;;;;;;;9.40;4.40;;;;;;;;;;5083658;28;20024;-63
2023/07/10 07:03:40;;;;;;;8.33;4.63;;;;;;;;;;5086301;28;20030;-63
2023/07/10 07:06:10;;;;;;;7.45;4.57;;;;;;;;;;5092963;28;20058;-63
2023/07/10 07:08:35;;;;;;;8.32;4.72;;;;;;;;;;5090401;28;20016;-63
2023/07/10 07:11:03;;;;;;;8.35;4.75;;;;;;;;;;5094420;28;20020;-65
2023/07/10 07:13:28;;;;;;;8.35;4.60;;;;;;;;;;5085102;28;20470;-64
2023/07/10 07:15:54;;;;;;;8.97;4.40;;;;;;;;;;5092305;28;20027;-64
2023/07/10 07:18:20;;;;;;;7.72;4.60;;;;;;;;;;5084054;28;20734;-64
2023/07/10 07:20:45;;;;;;;8.35;5.05;;;;;;;;;;5093053;28;20008;-63
2023/07/10 07:23:11;;;;;;;6.90;4.63;;;;;;;;;;5082218;28;20449;-64
2023/07/10 07:25:38;;;;;;;9.37;4.97;;;;;;;;;;5082509;28;20265;-62
2023/07/10 07:28:03;;;;;;;10.23;5.10;;;;;;;;;;5094482;28;20286;-63
2023/07/10 07:30:29;;;;;;;7.80;4.82;;;;;;;;;;5083162;28;20030;-64
2023/07/10 07:32:56;;;;;;;8.38;5.00;;;;;;;;;;5091133;28;20019;-61
2023/07/10 07:35:21;;;;;;;8.40;5.20;;;;;;;;;;5085161;28;20023;-63
2023/07/10 07:37:47;;;;;;;11.63;5.50;;;;;;;;;;5092234;28;20381;-58
2023/07/10 07:40:12;;;;;;;7.70;5.07;;;;;;;;;;5088232;28;20019;-61
2023/07/10 07:42:40;;;;;;;9.63;4.85;;;;;;;;;;5087640;28;20126;-60
2023/07/10 07:45:05;;;;;;;8.38;5.00;;;;;;;;;;5093414;28;20028;-61
2023/07/10 07:47:31;;;;;;;9.57;5.18;;;;;;;;;;5090679;28;20517;-61
2023/07/10 07:49:56;;;;;;;9.50;4.90;;;;;;;;;;5092186;28;20154;-60
2023/07/10 07:52:21;;;;;;;10.57;4.70;;;;;;;;;;5093435;28;20257;-58
2023/07/10 07:54:48;;;;;;;10.37;5.17;;;;;;;;;;5084370;28;20246;-60
2023/07/10 07:57:16;;;;;;;8.90;4.57;;;;;;;;;;5092113;28;20248;-59
2023/07/10 07:59:41;;;;;;;8.35;4.95;;;;;;;;;;5093648;28;20064;-59
2023/07/10 08:02:09;;;;;;;7.67;4.50;;;;;;;;;;5088010;28;20023;-60
2023/07/10 08:04:34;;;;;;;9.18;4.85;;;;;;;;;;5086917;28;20249;-59
2023/07/10 08:06:59;;;;;;;9.60;4.78;;;;;;;;;;5089942;28;20042;-60
2023/07/10 08:09:25;;;;;;;11.20;4.70;;;;;;;;;;5089397;28;20097;-59
2023/07/10 08:11:50;;;;;;;10.10;5.10;;;;;;;;;;5089229;28;20118;-58
2023/07/10 08:14:15;;;;;;;8.73;4.87;;;;;;;;;;5084703;28;20031;-60
2023/07/10 08:16:40;;;;;;;8.23;4.93;;;;;;;;;;5095366;28;21083;-59
2023/07/10 08:19:06;;;;;;;7.97;4.88;;;;;;;;;;5095862;28;20283;-59
2023/07/10 08:21:31;;;;;;;8.10;4.40;;;;;;;;;;5094630;28;20020;-60
2023/07/10 08:23:56;;;;;;;8.60;4.53;;;;;;;;;;5089003;28;20787;-60
2023/07/10 08:26:22;;;;;;;7.32;4.60;;;;;;;;;;5094448;28;20254;-60
2023/07/10 08:28:47;;;;;;;8.07;4.73;;;;;;;;;;5092802;28;20024;-60
2023/07/10 08:31:12;;;;;;;8.17;4.67;;;;;;;;;;5094125;28;20023;-62
2023/07/10 08:33:38;;;;;;;8.70;4.80;;;;;;;;;;5086134;28;20790;-60
2023/07/10 08:36:05;;;;;;;11.63;4.78;;;;;;;;;;5087875;28;20589;-60
2023/07/10 08:38:31;;;;;;;9.88;4.55;;;;;;;;;;5088819;28;20031;-59
2023/07/10 08:40:58;;;;;;;8.15;4.60;;;;;;;;;;5089596;28;20031;-59
2023/07/10 08:43:34;;;;;;;10.40;4.78;;;;;;;;;;5097294;28;20020;-60
2023/07/10 08:46:04;;;;;;;9.45;4.82;;;;;;;;;;5090075;28;20700;-60
2023/07/10 08:48:35;;;;;;;8.43;4.80;;;;;;;;;;5095377;28;20116;-61
2023/07/10 08:51:25;;;;;;;7.78;4.65;;;;;;;;;;5088623;28;20029;-60
2023/07/10 08:54:03;;;;;;;9.10;4.63;;;;;;;;;;5089304;28;20040;-60
2023/07/10 08:56:54;;;;;;;8.65;4.88;;;;;;;;;;5093823;28;20030;-59
2023/07/10 08:59:25;;;;;;;8.57;4.72;;;;;;;;;;5060684;28;20036;-59
2023/07/10 09:01:55;;;;;;;9.18;4.70;;;;;;;;;;5093930;28;20024;-60
2023/07/10 09:04:23;;;;;;;10.40;5.00;;;;;;;;;;5091810;28;20062;-60
2023/07/10 09:06:50;;;;;;;7.28;4.00;;;;;;;;;;5089557;28;20066;-60
2023/07/10 09:09:15;;;;;;;8.48;4.70;;;;;;;;;;5094958;28;20815;-58
2023/07/10 09:11:41;;;;;;;9.17;4.80;;;;;;;;;;5086181;28;20030;-58
2023/07/10 09:14:12;;;;;;;7.30;4.43;;;;;;;;;;5095465;28;20027;-59
2023/07/10 09:16:38;;;;;;;8.75;4.30;;;;;;;;;;5088471;28;20132;-59
2023/07/10 09:19:05;;;;;;;8.10;4.90;;;;;;;;;;5092947;28;20110;-61
2023/07/10 09:21:42;;;;;;;8.85;5.10;;;;;;;;;;5104794;27;20339;-59
2023/07/10 09:24:13;;;;;;;8.82;4.88;;;;;;;;;;5090068;28;20016;-60
2023/07/10 09:26:39;;;;;;;8.25;4.53;;;;;;;;;;5094248;28;20378;-59
2023/07/10 09:29:19;;;;;;;9.43;4.60;;;;;;;;;;5090195;28;20015;-58
2023/07/10 09:32:04;;;;;;;9.63;4.50;;;;;;;;;;5094665;28;20020;-61
2023/07/10 09:34:30;;;;;;;8.32;4.60;;;;;;;;;;5088904;28;20015;-60
2023/07/10 09:36:56;;;;;;;7.47;4.75;;;;;;;;;;5096027;28;20083;-59
2023/07/10 09:39:29;;;;;;;7.90;5.22;;;;;;;;;;5090359;28;20015;-59
2023/07/10 09:41:57;;;;;;;7.43;5.20;;;;;;;;;;5093747;28;20024;-59
2023/07/10 09:44:22;;;;;;;9.43;5.22;;;;;;;;;;5085584;28;20028;-61
2023/07/10 09:46:48;;;;;;;8.07;5.03;;;;;;;;;;5089133;28;20735;-60
2023/07/10 09:49:15;;;;;;;8.55;4.78;;;;;;;;;;5086092;28;20030;-60
2023/07/10 09:51:51;;;;;;;8.88;4.75;;;;;;;;;;5089161;28;20018;-59
2023/07/10 09:54:16;;;;;;;8.25;4.60;;;;;;;;;;5091412;28;20070;-59
2023/07/10 09:56:41;;;;;;;7.20;5.07;;;;;;;;;;5088348;28;20150;-61
2023/07/10 09:59:23;;;;;;;9.10;5.03;;;;;;;;;;5089530;28;20023;-60
2023/07/10 10:01:51;;;;;;;8.45;4.68;;;;;;;;;;5089268;28;20023;-60
2023/07/10 10:04:21;;;;;;;9.30;5.00;;;;;;;;;;5088472;28;20101;-60
2023/07/10 10:06:53;;;;;;;9.15;5.10;;;;;;;;;;5091262;28;20046;-60
2023/07/10 10:09:23;;;;;;;8.23;5.22;;;;;;;;;;5092108;28;20089;-60
2023/07/10 10:11:50;;;;;;;9.50;5.10;;;;;;;;;;5088309;28;20051;-59
2023/07/10 10:14:18;;;;;;;10.00;5.05;;;;;;;;;;5090493;28;20024;-60
2023/07/10 10:16:47;;;;;;;8.63;5.07;;;;;;;;;;5088560;28;20036;-59
2023/07/10 10:19:15;;;;;;;;;;;;;;;;;;5095633;28;20024;-59
2023/07/10 10:21:40;;;;;;;7.90;4.68;;;;;;;;;;5083585;28;20422;-60
2023/07/10 10:24:11;;;;;;;8.48;4.85;;;;;;;;;;5087882;28;20047;-58
2023/07/10 10:26:46;;;;;;;8.15;4.97;;;;;;;;;;5087774;28;20024;-60
2023/07/10 10:29:14;;;;;;;8.68;5.03;;;;;;;;;;5090044;28;20020;-59
2023/07/10 10:31:49;;;;;;;8.50;4.93;;;;;;;;;;5089077;28;20027;-60
2023/07/10 10:34:20;;;;;;;8.23;5.35;;;;;;;;;;5087995;28;20032;-60
2023/07/10 10:37:00;;;;;;;10.45;5.60;;;;;;;;;;5084455;28;20849;-60
2023/07/10 10:39:31;;;;;;;8.65;4.97;;;;;;;;;;5092237;28;20020;-60
2023/07/10 10:42:19;;;;;;;9.30;5.05;;;;;;;;;;5081530;28;20095;-61
2023/07/10 10:44:53;;;;;;;8.02;5.10;;;;;;;;;;5090729;28;20024;-60
2023/07/10 10:47:29;;;;;;;9.32;5.10;;;;;;;;;;5083781;28;20020;-59
2023/07/10 10:49:57;;;;;;;8.88;5.68;;;;;;;;;;5090356;28;21158;-61
2023/07/10 10:52:23;;;;;;;8.85;5.18;;;;;;;;;;5086116;28;20030;-60
2023/07/10 10:54:57;;;;;;;10.23;5.57;;;;;;;;;;5088422;28;20015;-59
2023/07/10 10:57:27;;;;;;;8.68;5.30;;;;;;;;;;5089513;28;20016;-59
2023/07/10 11:00:05;;;;;;;6.93;5.15;;;;;;;;;;5092008;28;20080;-60
2023/07/10 11:02:33;;;;;;;8.07;5.05;;;;;;;;;;5087315;28;20019;-60
2023/07/10 11:05:10;;;;;;;7.82;5.28;;;;;;;;;;5085577;28;20020;-58
2023/07/10 11:07:39;;;;;;;7.88;4.82;;;;;;;;;;5086110;28;20053;-60
2023/07/10 11:10:14;;;;;;;8.85;4.82;;;;;;;;;;5093077;28;20062;-59
2023/07/10 11:12:40;;;;;;;8.25;5.05;;;;;;;;;;5090001;28;20110;-59
2023/07/10 11:15:18;;;;;;;8.80;5.47;;;;;;;;;;5089825;28;20493;-60
2023/07/10 11:17:47;;;;;;;10.90;5.22;;;;;;;;;;5089311;28;20081;-59
2023/07/10 11:20:14;;;;;;;8.18;5.38;;;;;;;;;;5091211;28;20073;-59
2023/07/10 11:22:48;;;;;;;8.90;5.35;;;;;;;;;;5087453;28;20123;-59
2023/07/10 11:25:27;;;;;;;9.05;5.85;;;;;;;;;;5086351;28;20031;-60
2023/07/10 11:27:53;;;;;;;9.77;5.63;;;;;;;;;;5087128;28;20019;-59
2023/07/10 11:30:28;;;;;;;9.57;5.77;;;;;;;;;;5082204;28;20026;-60
2023/07/10 11:33:00;;;;;;;8.60;5.68;;;;;;;;;;5091918;28;20249;-58
2023/07/10 11:35:30;;;;;;;8.75;5.80;;;;;;;;;;5085368;28;20023;-59
2023/07/10 11:38:01;;;;;;;8.68;5.50;;;;;;;;;;5095074;28;20040;-59
2023/07/10 11:40:26;;;;;;;8.43;5.43;;;;;;;;;;5082497;28;20020;-60
2023/07/10 11:42:54;;;;;;;7.87;5.40;;;;;;;;;;5088041;28;20031;-60
2023/07/10 11:45:40;;;;;;;10.55;5.97;;;;;;;;;;5090776;28;20028;-60
2023/07/10 11:48:25;;;;;;;10.93;5.95;;;;;;;;;;5073451;28;20028;-61
2023/07/10 11:50:50;;;;;;;9.13;5.90;;;;;;;;;;5091352;28;20201;-59
2023/07/10 11:53:15;;;;;;;11.00;6.13;;;;;;;;;;5089739;28;20028;-59
2023/07/10 11:56:01;;;;;;;8.50;5.70;;;;;;;;;;5096591;28;20093;-60
2023/07/10 11:58:33;;;;;;;8.63;6.35;;;;;;;;;;5075944;28;20032;-60
2023/07/10 12:01:01;;;;;;;9.18;5.38;;;;;;;;;;5092662;28;20043;-60
2023/07/10 12:03:29;;;;;;;7.90;5.30;;;;;;;;;;5089534;28;20051;-62
2023/07/10 12:05:54;;;;;;;10.13;5.63;;;;;;;;;;5090148;28;20813;-59
2023/07/10 12:08:23;;;;;;;9.13;5.43;;;;;;;;;;5096029;28;20012;-62
2023/07/10 12:10:53;;;;;;;7.75;5.50;;;;;;;;;;5094901;28;20256;-60
2023/07/10 12:13:21;;;;;;;7.95;5.60;;;;;;;;;;5093877;28;20019;-61
2023/07/10 12:15:47;;;;;;;8.85;5.70;;;;;;;;;;5084497;28;20016;-60
2023/07/10 12:18:19;;;;;;;10.65;5.88;;;;;;;;;;5089057;28;20056;-60
2023/07/10 12:20:47;;;;;;;9.02;5.85;;;;;;;;;;5094434;27;20016;-60
2023/07/10 12:23:13;;;;;;;8.93;6.10;;;;;;;;;;5089330;28;20019;-59
2023/07/10 12:25:46;;;;;;;9.35;5.72;;;;;;;;;;5088884;28;20514;-59
2023/07/10 12:28:13;;;;;;;8.75;5.88;;;;;;;;;;5086714;28;20378;-59
2023/07/10 12:30:39;;;;;;;11.38;5.82;;;;;;;;;;5094994;28;20884;-60
2023/07/10 12:33:18;;;;;;;10.60;6.00;;;;;;;;;;5091193;28;20405;-59
2023/07/10 12:35:44;;;;;;;9.95;6.00;;;;;;;;;;5085673;28;20024;-61
2023/07/10 12:38:10;;;;;;;9.50;5.45;;;;;;;;;;5088995;28;20030;-60
2023/07/10 12:40:36;;;;;;;10.68;5.53;;;;;;;;;;5090701;28;20026;-59
2023/07/10 12:43:19;;;;;;;10.27;6.03;;;;;;;;;;5092000;28;20035;-59
2023/07/10 12:45:44;;;;;;;8.32;6.35;;;;;;;;;;5091302;28;20031;-60
2023/07/10 12:48:11;;;;;;;9.33;6.10;;;;;;;;;;5093701;28;20460;-60
2023/07/10 12:50:41;;;;;;;8.98;6.20;;;;;;;;;;5092403;28;20088;-60
2023/07/10 12:53:07;;;;;;;11.10;5.60;;;;;;;;;;5090922;28;20095;-60
2023/07/10 12:55:32;;;;;;;9.65;5.72;;;;;;;;;;5089111;28;20428;-59
2023/07/10 12:57:58;;;;;;;9.98;6.32;;;;;;;;;;5096200;28;20022;-59
2023/07/10 13:00:38;;;;;;;9.20;6.15;;;;;;;;;;5096633;28;20049;-60
2023/07/10 13:03:03;;;;;;;9.10;6.22;;;;;;;;;;5088440;28;20023;-59
2023/07/10 13:05:34;;;;;;;9.07;5.70;;;;;;;;;;5092340;28;20028;-59
2023/07/10 13:08:01;;;;;;;11.55;6.10;;;;;;;;;;5092336;28;20070;-60
2023/07/10 13:10:28;;;;;;;9.98;6.00;;;;;;;;;;5090459;28;20789;-60
2023/07/10 13:12:57;;;;;;;8.77;5.97;;;;;;;;;;5099373;28;20031;-60
2023/07/10 13:15:27;;;;;;;9.35;6.00;;;;;;;;;;5081757;28;20020;-60
2023/07/10 13:17:53;;;;;;;8.52;5.63;;;;;;;;;;5086613;28;20047;-60
2023/07/10 13:20:23;;;;;;;11.38;5.85;;;;;;;;;;5090278;28;20056;-61
2023/07/10 13:22:50;;;;;;;8.60;5.90;;;;;;;;;;5093455;28;20084;-60
2023/07/10 13:25:15;;;;;;;13.50;5.75;;;;;;;;;;5086437;28;20035;-60
2023/07/10 13:27:40;;;;;;;7.90;5.50;;;;;;;;;;5088038;28;20591;-60
2023/07/10 13:30:15;;;;;;;7.93;5.80;;;;;;;;;;5093137;28;20019;-59
2023/07/10 13:32:41;;;;;;;10.00;6.03;;;;;;;;;;5088575;28;20269;-60
2023/07/10 13:35:07;;;;;;;7.70;5.60;;;;;;;;;;5093564;28;20407;-59
2023/07/10 13:37:33;;;;;;;11.88;5.70;;;;;;;;;;5088210;28;20020;-58
2023/07/10 13:39:58;;;;;;;9.23;5.80;;;;;;;;;;5095289;28;20030;-59
2023/07/10 13:42:26;;;;;;;9.70;6.30;;;;;;;;;;5084982;28;20661;-59
2023/07/10 13:44:54;;;;;;;10.77;6.25;;;;;;;;;;5107477;27;20751;-60
2023/07/10 13:47:24;;;;;;;10.00;6.28;;;;;;;;;;5093551;28;20374;-60
2023/07/10 13:49:52;;;;;;;9.48;6.03;;;;;;;;;;5089921;28;20026;-60
2023/07/10 13:52:21;;;;;;;9.97;5.57;;;;;;;;;;5094404;28;20034;-58
2023/07/10 13:54:50;;;;;;;10.23;6.18;;;;;;;;;;5091609;28;20015;-60
2023/07/10 13:57:26;;;;;;;9.05;6.15;;;;;;;;;;5086728;28;20019;-60
2023/07/10 13:59:52;;;;;;;8.95;6.05;;;;;;;;;;5093888;28;20051;-60
2023/07/10 14:02:23;;;;;;;9.75;6.55;;;;;;;;;;5087960;28;20016;-60
2023/07/10 14:04:48;;;;;;;13.10;6.55;;;;;;;;;;5093758;28;20106;-60
2023/07/10 14:07:14;;;;;;;10.68;6.55;;;;;;;;;;5091475;28;20434;-61
2023/07/10 14:09:40;;;;;;;12.27;6.20;;;;;;;;;;5093270;28;20138;-60
2023/07/10 14:12:11;;;;;;;10.60;6.10;;;;;;;;;;5091025;28;20569;-61
2023/07/10 14:14:38;;;;;;;10.05;6.50;;;;;;;;;;5093708;28;20486;-61
2023/07/10 14:17:06;;;;;;;8.07;6.03;;;;;;;;;;5086637;28;20055;-61
2023/07/10 14:19:36;;;;;;;9.68;6.15;;;;;;;;;;5091208;28;20452;-61
2023/07/10 14:22:03;;;;;;;9.40;6.18;;;;;;;;;;5091726;28;20027;-60
2023/07/10 14:24:31;;;;;;;9.48;6.10;;;;;;;;;;5086497;28;20055;-60
2023/07/10 14:26:56;;;;;;;8.82;5.85;;;;;;;;;;5093759;28;20454;-61
2023/07/10 14:29:22;;;;;;;9.03;6.47;;;;;;;;;;5090785;28;20081;-60
2023/07/10 14:31:47;;;;;;;9.20;6.68;;;;;;;;;;5086150;28;20514;-59
2023/07/10 14:34:15;;;;;;;10.48;6.18;;;;;;;;;;5092355;28;20359;-60
2023/07/10 14:36:42;;;;;;;9.90;6.45;;;;;;;;;;5081779;28;20019;-60
2023/07/10 14:39:11;;;;;;;10.65;6.63;;;;;;;;;;5089669;28;20022;-60
2023/07/10 14:41:39;;;;;;;10.25;6.40;;;;;;;;;;5084663;28;20084;-61
2023/07/10 14:44:04;;;;;;;8.68;6.35;;;;;;;;;;5091741;28;20020;-59